Hauptseite
METAR-TAF:

METAR-TAF

Flughäfen :

Diest, Belgien

Schaffen

Breite: 51-00N, Länge: 005-04E, Höhe: 30 m

Beobachtung

Neuester Wetterbericht von vor 19 Minuten, um 09:37 UTC
Wind 8 kt aus Südost
Temperatur 25°C
Luftfeuchtigkeit 34%
Luftdruck 1026 hPa
Sichtweite 10 km oder mehr
Leicht bewölkt in der Höhe von 30000 ft

METAR: EBDT 190937Z 13008KT 9999 FEW300 25/08 Q1026 BLU FCST CANCEL

Zeit: 11:56 (09:56 UTC)

Prognose

Neuester Wetterbericht von vor 1 Stunde und 15 Minuten, um 08:41 UTC
Gültige Prognose vom 19 um 10 UTC bis 19 um 19 UTC
Wind 5 kt aus Süd/Südost
Sichtweite 10 km oder mehr
Aufgelockert bewölkt in der Höhe von 35000 ft

TAF: EBDT 190841Z 1910/1919 15005KT 9999 SCT350

Wetterbeobachtungen und Prognosen von mehr als 4000 Flughäfen (METAR und TAF Bericht).

Die verfügbaren Stationen werden durch gelbe und rote Markierungen auf der Karte dargestellt.

Führen Sie die Maus auf sie, um den Namen der Station zu sehen.

Darauf klicken, um die Beobachtung von Wetterbeobachtungen und Prognosen zu sehen.

Um die Karte zu ändern : klicken Sie auf den grünen Tasten mit einem schwarzen Kreuz Zum Vergrößern, auf den grünen Button mit einem Gedankenstrich zu verkleinern, oder auf die grünen Pfeile für benachbarte Karten.


METAR-TAF: